Terminal Aerodrome Forecast
Issued by NWS Rapid City, SD

Home | Current Version | Previous Version | Text Only | Print | Product List | Glossary On
Versions: 1 2 3 4 5 6 7 8 9 10 11 12 13 14
000
FTUS43 KUNR 051723
TAFRAP
TAF
KRAP 051723Z 0518/0618 14016KT P6SM BKN025
     FM052100 14016KT P6SM BKN035
     FM060200 14010KT P6SM -SHRA OVC025
     FM060900 14007KT 5SM -RA OVC012=

USA.gov is the U.S. government's official web portal to all federal, state and local government web resources and services.